Terminal Aerodrome Forecast
Issued by NWS Cleveland, OH

Home | Current Version | Previous Version | Text Only | Print | Product List | Glossary On
Versions: 1 2 3 4 5 6 7 8 9 10 11 12 13 14 15 16 17 18 19 20 21 22 23 24 25 26
000
FTUS41 KCLE 241000 AAC
TAFMFD
TAF AMD
KMFD 241051Z 2411/2506 14008KT 3SM BR OVC003
      TEMPO 2411/2414 1SM BR
     FM241600 16015G25KT P6SM OVC018
     FM242200 18020G35KT 4SM -SHRA OVC012
     FM250000 24022G40KT P6SM OVC012=

USA.gov is the U.S. government's official web portal to all federal, state and local government web resources and services.